sensor_id;sensor_type;location;lat;lon;timestamp;pressure;altitude;pressure_sealevel;temperature;humidity
49813;BME280;35706;52.100;5.056;2024-03-08T00:00:34;101843.41;;;7.37;100.00
49813;BME280;35706;52.100;5.056;2024-03-08T00:01:35;101838.44;;;7.46;100.00
49813;BME280;35706;52.100;5.056;2024-03-08T00:02:36;101840.88;;;7.35;100.00
49813;BME280;35706;52.100;5.056;2024-03-08T00:03:37;101844.41;;;7.34;100.00
49813;BME280;35706;52.100;5.056;2024-03-08T00:04:37;101833.25;;;7.61;100.00
49813;BME280;35706;52.100;5.056;2024-03-08T00:05:37;101835.00;;;7.46;100.00
49813;BME280;35706;52.100;5.056;2024-03-08T00:06:38;101828.25;;;7.42;100.00
49813;BME280;35706;52.100;5.056;2024-03-08T00:07:40;101839.47;;;7.44;100.00
49813;BME280;35706;52.100;5.056;2024-03-08T00:08:41;101832.53;;;7.28;100.00
49813;BME280;35706;52.100;5.056;2024-03-08T00:09:41;101837.66;;;7.30;100.00
49813;BME280;35706;52.100;5.056;2024-03-08T00:10:42;101828.59;;;7.21;100.00
49813;BME280;35706;52.100;5.056;2024-03-08T00:11:42;101827.59;;;7.38;100.00
49813;BME280;35706;52.100;5.056;2024-03-08T00:12:44;101825.94;;;7.37;100.00
49813;BME280;35706;52.100;5.056;2024-03-08T00:13:44;101829.28;;;7.39;100.00
49813;BME280;35706;52.100;5.056;2024-03-08T00:14:45;101803.78;;;7.57;100.00
49813;BME280;35706;52.100;5.056;2024-03-08T00:15:45;101814.25;;;7.86;100.00
49813;BME280;35706;52.100;5.056;2024-03-08T00:16:45;101824.66;;;7.73;100.00
49813;BME280;35706;52.100;5.056;2024-03-08T00:17:46;101818.94;;;7.66;100.00
49813;BME280;35706;52.100;5.056;2024-03-08T00:18:47;101826.31;;;7.45;100.00
49813;BME280;35706;52.100;5.056;2024-03-08T00:19:49;101823.59;;;7.32;100.00
49813;BME280;35706;52.100;5.056;2024-03-08T00:20:53;101817.59;;;7.45;100.00
49813;BME280;35706;52.100;5.056;2024-03-08T00:21:53;101823.06;;;7.56;100.00
49813;BME280;35706;52.100;5.056;2024-03-08T00:22:53;101822.09;;;7.28;100.00
49813;BME280;35706;52.100;5.056;2024-03-08T00:23:53;101814.56;;;7.08;100.00
49813;BME280;35706;52.100;5.056;2024-03-08T00:24:56;101815.88;;;7.15;100.00
49813;BME280;35706;52.100;5.056;2024-03-08T00:25:57;101817.38;;;7.19;100.00
49813;BME280;35706;52.100;5.056;2024-03-08T00:26:57;101818.50;;;7.15;100.00
49813;BME280;35706;52.100;5.056;2024-03-08T00:27:58;101815.06;;;7.29;100.00
49813;BME280;35706;52.100;5.056;2024-03-08T00:28:59;101822.09;;;7.43;100.00
49813;BME280;35706;52.100;5.056;2024-03-08T00:30:00;101803.56;;;7.17;100.00
49813;BME280;35706;52.100;5.056;2024-03-08T00:31:01;101814.84;;;7.03;100.00
49813;BME280;35706;52.100;5.056;2024-03-08T00:32:01;101817.69;;;7.29;100.00
49813;BME280;35706;52.100;5.056;2024-03-08T00:33:01;101809.38;;;7.22;100.00
49813;BME280;35706;52.100;5.056;2024-03-08T00:34:02;101809.41;;;7.06;100.00
49813;BME280;35706;52.100;5.056;2024-03-08T00:35:02;101792.59;;;6.96;100.00
49813;BME280;35706;52.100;5.056;2024-03-08T00:36:03;101793.38;;;7.12;100.00
49813;BME280;35706;52.100;5.056;2024-03-08T00:37:03;101806.94;;;7.33;100.00
49813;BME280;35706;52.100;5.056;2024-03-08T00:38:04;101794.59;;;7.21;100.00
49813;BME280;35706;52.100;5.056;2024-03-08T00:39:04;101796.75;;;7.14;100.00
49813;BME280;35706;52.100;5.056;2024-03-08T00:40:08;101802.56;;;7.34;100.00
49813;BME280;35706;52.100;5.056;2024-03-08T00:41:09;101793.34;;;6.98;100.00
49813;BME280;35706;52.100;5.056;2024-03-08T00:42:09;101802.59;;;7.04;100.00
49813;BME280;35706;52.100;5.056;2024-03-08T00:43:10;101798.16;;;6.90;100.00
49813;BME280;35706;52.100;5.056;2024-03-08T00:44:10;101801.03;;;6.85;100.00
49813;BME280;35706;52.100;5.056;2024-03-08T00:45:11;101801.69;;;7.05;100.00
49813;BME280;35706;52.100;5.056;2024-03-08T00:46:11;101794.13;;;7.14;100.00
49813;BME280;35706;52.100;5.056;2024-03-08T00:47:12;101797.44;;;7.02;100.00
49813;BME280;35706;52.100;5.056;2024-03-08T00:48:12;101796.25;;;7.08;100.00
49813;BME280;35706;52.100;5.056;2024-03-08T00:49:13;101793.16;;;7.01;100.00
49813;BME280;35706;52.100;5.056;2024-03-08T00:50:13;101789.53;;;7.04;100.00
49813;BME280;35706;52.100;5.056;2024-03-08T00:51:13;101795.81;;;7.16;100.00
49813;BME280;35706;52.100;5.056;2024-03-08T00:52:15;101781.47;;;6.92;100.00
49813;BME280;35706;52.100;5.056;2024-03-08T00:53:15;101793.84;;;7.05;100.00
49813;BME280;35706;52.100;5.056;2024-03-08T00:54:16;101790.13;;;7.23;100.00
49813;BME280;35706;52.100;5.056;2024-03-08T00:55:17;101788.06;;;7.14;100.00
49813;BME280;35706;52.100;5.056;2024-03-08T00:56:17;101787.63;;;6.91;100.00
49813;BME280;35706;52.100;5.056;2024-03-08T00:57:17;101787.81;;;6.88;100.00
49813;BME280;35706;52.100;5.056;2024-03-08T00:58:18;101791.50;;;7.14;100.00
49813;BME280;35706;52.100;5.056;2024-03-08T00:59:18;101780.78;;;7.19;100.00
49813;BME280;35706;52.100;5.056;2024-03-08T01:00:19;101785.06;;;7.06;100.00
49813;BME280;35706;52.100;5.056;2024-03-08T01:01:21;101778.88;;;7.07;100.00
49813;BME280;35706;52.100;5.056;2024-03-08T01:02:21;101777.25;;;6.90;100.00
49813;BME280;35706;52.100;5.056;2024-03-08T01:03:23;101781.31;;;6.65;100.00
49813;BME280;35706;52.100;5.056;2024-03-08T01:04:23;101771.88;;;6.93;100.00
49813;BME280;35706;52.100;5.056;2024-03-08T01:05:25;101773.81;;;6.89;100.00
49813;BME280;35706;52.100;5.056;2024-03-08T01:06:26;101778.00;;;6.92;100.00
49813;BME280;35706;52.100;5.056;2024-03-08T01:07:27;101772.84;;;6.76;100.00
49813;BME280;35706;52.100;5.056;2024-03-08T01:08:27;101772.09;;;6.74;100.00
49813;BME280;35706;52.100;5.056;2024-03-08T01:09:28;101763.34;;;6.89;100.00
49813;BME280;35706;52.100;5.056;2024-03-08T01:10:28;101763.66;;;6.99;100.00
49813;BME280;35706;52.100;5.056;2024-03-08T01:11:29;101762.72;;;6.86;100.00
49813;BME280;35706;52.100;5.056;2024-03-08T01:12:29;101761.28;;;6.80;100.00
49813;BME280;35706;52.100;5.056;2024-03-08T01:13:30;101767.31;;;7.11;100.00
49813;BME280;35706;52.100;5.056;2024-03-08T01:14:30;101756.13;;;7.23;100.00
49813;BME280;35706;52.100;5.056;2024-03-08T01:15:31;101756.66;;;7.00;100.00
49813;BME280;35706;52.100;5.056;2024-03-08T01:16:31;101754.13;;;6.84;100.00
49813;BME280;35706;52.100;5.056;2024-03-08T01:17:33;101759.44;;;6.66;100.00
49813;BME280;35706;52.100;5.056;2024-03-08T01:18:33;101765.28;;;6.56;100.00
49813;BME280;35706;52.100;5.056;2024-03-08T01:19:34;101753.47;;;6.64;100.00
49813;BME280;35706;52.100;5.056;2024-03-08T01:20:34;101757.91;;;6.78;100.00
49813;BME280;35706;52.100;5.056;2024-03-08T01:21:34;101747.28;;;6.81;100.00
49813;BME280;35706;52.100;5.056;2024-03-08T01:22:35;101752.16;;;6.87;100.00
49813;BME280;35706;52.100;5.056;2024-03-08T01:23:35;101743.03;;;6.64;100.00
49813;BME280;35706;52.100;5.056;2024-03-08T01:24:36;101748.53;;;6.60;100.00
49813;BME280;35706;52.100;5.056;2024-03-08T01:25:37;101753.31;;;6.37;100.00
49813;BME280;35706;52.100;5.056;2024-03-08T01:26:37;101754.13;;;6.38;100.00
49813;BME280;35706;52.100;5.056;2024-03-08T01:27:38;101748.00;;;6.69;100.00
49813;BME280;35706;52.100;5.056;2024-03-08T01:28:39;101738.00;;;6.45;100.00
49813;BME280;35706;52.100;5.056;2024-03-08T01:29:39;101744.94;;;6.30;100.00
49813;BME280;35706;52.100;5.056;2024-03-08T01:30:40;101744.16;;;6.14;100.00
49813;BME280;35706;52.100;5.056;2024-03-08T01:31:40;101749.00;;;6.66;100.00
49813;BME280;35706;52.100;5.056;2024-03-08T01:32:40;101738.25;;;6.87;100.00
49813;BME280;35706;52.100;5.056;2024-03-08T01:33:41;101731.81;;;6.92;100.00
49813;BME280;35706;52.100;5.056;2024-03-08T01:34:42;101735.78;;;7.28;100.00
49813;BME280;35706;52.100;5.056;2024-03-08T01:35:42;101732.81;;;6.90;100.00
49813;BME280;35706;52.100;5.056;2024-03-08T01:36:42;101737.91;;;6.63;100.00
49813;BME280;35706;52.100;5.056;2024-03-08T01:37:43;101729.53;;;6.72;100.00
49813;BME280;35706;52.100;5.056;2024-03-08T01:38:43;101720.78;;;6.87;100.00
49813;BME280;35706;52.100;5.056;2024-03-08T01:39:43;101726.72;;;6.61;100.00
49813;BME280;35706;52.100;5.056;2024-03-08T01:40:44;101724.25;;;6.58;100.00
49813;BME280;35706;52.100;5.056;2024-03-08T01:41:44;101736.56;;;6.86;100.00
49813;BME280;35706;52.100;5.056;2024-03-08T01:42:44;101730.19;;;6.76;100.00
49813;BME280;35706;52.100;5.056;2024-03-08T01:43:45;101730.31;;;6.58;100.00
49813;BME280;35706;52.100;5.056;2024-03-08T01:44:45;101736.16;;;6.47;100.00
49813;BME280;35706;52.100;5.056;2024-03-08T01:45:46;101719.97;;;6.57;100.00
49813;BME280;35706;52.100;5.056;2024-03-08T01:46:47;101723.97;;;6.62;100.00
49813;BME280;35706;52.100;5.056;2024-03-08T01:47:49;101725.88;;;6.75;100.00
49813;BME280;35706;52.100;5.056;2024-03-08T01:48:50;101717.75;;;6.65;100.00
49813;BME280;35706;52.100;5.056;2024-03-08T01:49:51;101727.00;;;6.40;100.00
49813;BME280;35706;52.100;5.056;2024-03-08T01:50:52;101718.91;;;6.45;100.00
49813;BME280;35706;52.100;5.056;2024-03-08T01:51:53;101715.72;;;6.40;100.00
49813;BME280;35706;52.100;5.056;2024-03-08T01:52:56;101713.88;;;6.42;100.00
49813;BME280;35706;52.100;5.056;2024-03-08T01:54:01;101723.22;;;6.60;100.00
49813;BME280;35706;52.100;5.056;2024-03-08T01:55:04;101715.75;;;6.84;100.00
49813;BME280;35706;52.100;5.056;2024-03-08T01:56:07;101720.38;;;6.79;100.00
49813;BME280;35706;52.100;5.056;2024-03-08T01:57:08;101716.31;;;6.89;100.00
49813;BME280;35706;52.100;5.056;2024-03-08T01:58:10;101721.56;;;7.04;100.00
49813;BME280;35706;52.100;5.056;2024-03-08T01:59:12;101720.09;;;6.69;100.00
49813;BME280;35706;52.100;5.056;2024-03-08T02:00:13;101713.78;;;6.73;100.00
49813;BME280;35706;52.100;5.056;2024-03-08T02:01:13;101717.66;;;6.97;100.00
49813;BME280;35706;52.100;5.056;2024-03-08T02:02:17;101715.41;;;6.90;100.00
49813;BME280;35706;52.100;5.056;2024-03-08T02:03:18;101720.63;;;6.60;100.00
49813;BME280;35706;52.100;5.056;2024-03-08T02:04:19;101727.00;;;6.40;100.00
49813;BME280;35706;52.100;5.056;2024-03-08T02:05:21;101716.34;;;6.29;100.00
49813;BME280;35706;52.100;5.056;2024-03-08T02:06:21;101720.69;;;6.44;100.00
49813;BME280;35706;52.100;5.056;2024-03-08T02:07:21;101715.84;;;6.22;100.00
49813;BME280;35706;52.100;5.056;2024-03-08T02:08:22;101707.75;;;6.27;100.00
49813;BME280;35706;52.100;5.056;2024-03-08T02:09:22;101703.69;;;6.37;100.00
49813;BME280;35706;52.100;5.056;2024-03-08T02:10:24;101708.63;;;6.42;100.00
49813;BME280;35706;52.100;5.056;2024-03-08T02:11:25;101698.53;;;6.36;100.00
49813;BME280;35706;52.100;5.056;2024-03-08T02:12:25;101704.72;;;6.79;100.00
49813;BME280;35706;52.100;5.056;2024-03-08T02:13:25;101702.53;;;6.57;100.00
49813;BME280;35706;52.100;5.056;2024-03-08T02:14:26;101711.00;;;6.91;100.00
49813;BME280;35706;52.100;5.056;2024-03-08T02:15:53;101703.75;;;6.66;100.00
49813;BME280;35706;52.100;5.056;2024-03-08T02:16:54;101692.00;;;6.59;100.00
49813;BME280;35706;52.100;5.056;2024-03-08T02:17:57;101696.22;;;6.76;100.00
49813;BME280;35706;52.100;5.056;2024-03-08T02:18:58;101697.94;;;6.46;100.00
49813;BME280;35706;52.100;5.056;2024-03-08T02:20:01;101697.19;;;6.28;100.00
49813;BME280;35706;52.100;5.056;2024-03-08T02:21:04;101691.53;;;6.36;100.00
49813;BME280;35706;52.100;5.056;2024-03-08T02:22:05;101683.31;;;6.28;100.00
49813;BME280;35706;52.100;5.056;2024-03-08T02:23:06;101694.19;;;6.20;100.00
49813;BME280;35706;52.100;5.056;2024-03-08T02:24:06;101686.59;;;6.16;100.00
49813;BME280;35706;52.100;5.056;2024-03-08T02:25:07;101683.75;;;6.20;100.00
49813;BME280;35706;52.100;5.056;2024-03-08T02:26:08;101684.59;;;6.21;100.00
49813;BME280;35706;52.100;5.056;2024-03-08T02:27:08;101680.06;;;5.77;100.00
49813;BME280;35706;52.100;5.056;2024-03-08T02:28:12;101679.91;;;5.96;100.00
49813;BME280;35706;52.100;5.056;2024-03-08T02:29:13;101680.97;;;6.07;100.00
49813;BME280;35706;52.100;5.056;2024-03-08T02:30:14;101680.41;;;6.18;100.00
49813;BME280;35706;52.100;5.056;2024-03-08T02:31:16;101677.69;;;6.20;100.00
49813;BME280;35706;52.100;5.056;2024-03-08T02:32:16;101684.72;;;6.03;100.00
49813;BME280;35706;52.100;5.056;2024-03-08T02:33:18;101684.94;;;6.15;100.00
49813;BME280;35706;52.100;5.056;2024-03-08T02:34:18;101673.47;;;5.85;100.00
49813;BME280;35706;52.100;5.056;2024-03-08T02:35:18;101674.56;;;6.29;100.00
49813;BME280;35706;52.100;5.056;2024-03-08T02:36:19;101661.13;;;6.05;100.00
49813;BME280;35706;52.100;5.056;2024-03-08T02:37:19;101680.06;;;6.08;100.00
49813;BME280;35706;52.100;5.056;2024-03-08T02:38:23;101671.53;;;6.21;100.00
49813;BME280;35706;52.100;5.056;2024-03-08T02:39:24;101668.38;;;6.46;100.00
49813;BME280;35706;52.100;5.056;2024-03-08T02:40:24;101668.88;;;6.06;100.00
49813;BME280;35706;52.100;5.056;2024-03-08T02:41:25;101669.69;;;6.07;100.00
49813;BME280;35706;52.100;5.056;2024-03-08T02:42:25;101668.94;;;5.89;100.00
49813;BME280;35706;52.100;5.056;2024-03-08T02:43:25;101668.00;;;5.90;100.00
49813;BME280;35706;52.100;5.056;2024-03-08T02:44:25;101663.13;;;5.84;100.00
49813;BME280;35706;52.100;5.056;2024-03-08T02:45:26;101662.81;;;5.74;100.00
49813;BME280;35706;52.100;5.056;2024-03-08T02:46:26;101665.41;;;5.90;100.00
49813;BME280;35706;52.100;5.056;2024-03-08T02:47:26;101652.63;;;6.01;100.00
49813;BME280;35706;52.100;5.056;2024-03-08T02:48:27;101659.00;;;6.11;100.00
49813;BME280;35706;52.100;5.056;2024-03-08T02:49:27;101663.31;;;5.97;100.00
49813;BME280;35706;52.100;5.056;2024-03-08T02:50:28;101646.63;;;6.15;100.00
49813;BME280;35706;52.100;5.056;2024-03-08T02:51:29;101650.94;;;6.16;100.00
49813;BME280;35706;52.100;5.056;2024-03-08T02:52:29;101650.41;;;5.94;100.00
49813;BME280;35706;52.100;5.056;2024-03-08T02:53:30;101655.41;;;5.98;100.00
49813;BME280;35706;52.100;5.056;2024-03-08T02:54:31;101642.19;;;6.01;100.00
49813;BME280;35706;52.100;5.056;2024-03-08T02:55:31;101652.22;;;5.61;100.00
49813;BME280;35706;52.100;5.056;2024-03-08T02:56:33;101651.19;;;5.80;100.00
49813;BME280;35706;52.100;5.056;2024-03-08T02:57:35;101654.16;;;5.74;100.00
49813;BME280;35706;52.100;5.056;2024-03-08T02:58:35;101654.88;;;5.91;100.00
49813;BME280;35706;52.100;5.056;2024-03-08T02:59:35;101650.50;;;5.92;100.00
49813;BME280;35706;52.100;5.056;2024-03-08T03:00:39;101642.97;;;6.03;100.00
49813;BME280;35706;52.100;5.056;2024-03-08T03:01:41;101646.19;;;6.23;100.00
49813;BME280;35706;52.100;5.056;2024-03-08T03:02:41;101636.22;;;6.29;100.00
49813;BME280;35706;52.100;5.056;2024-03-08T03:03:42;101642.53;;;5.95;100.00
49813;BME280;35706;52.100;5.056;2024-03-08T03:04:43;101648.03;;;6.21;100.00
49813;BME280;35706;52.100;5.056;2024-03-08T03:05:43;101645.50;;;6.35;100.00
49813;BME280;35706;52.100;5.056;2024-03-08T03:06:44;101642.34;;;6.44;100.00
49813;BME280;35706;52.100;5.056;2024-03-08T03:07:44;101643.34;;;6.42;100.00
49813;BME280;35706;52.100;5.056;2024-03-08T03:08:45;101639.81;;;6.13;100.00
49813;BME280;35706;52.100;5.056;2024-03-08T03:09:45;101638.66;;;6.02;100.00
49813;BME280;35706;52.100;5.056;2024-03-08T03:10:46;101638.25;;;5.78;100.00
49813;BME280;35706;52.100;5.056;2024-03-08T03:11:46;101636.97;;;5.54;100.00
49813;BME280;35706;52.100;5.056;2024-03-08T03:12:48;101634.53;;;5.98;100.00
49813;BME280;35706;52.100;5.056;2024-03-08T03:13:51;101632.16;;;5.78;100.00
49813;BME280;35706;52.100;5.056;2024-03-08T03:14:51;101633.69;;;5.66;100.00
49813;BME280;35706;52.100;5.056;2024-03-08T03:15:52;101630.59;;;5.59;100.00
49813;BME280;35706;52.100;5.056;2024-03-08T03:16:52;101643.19;;;5.67;100.00
49813;BME280;35706;52.100;5.056;2024-03-08T03:17:53;101634.72;;;5.63;100.00
49813;BME280;35706;52.100;5.056;2024-03-08T03:18:53;101628.81;;;5.60;100.00
49813;BME280;35706;52.100;5.056;2024-03-08T03:19:53;101627.53;;;5.99;100.00
49813;BME280;35706;52.100;5.056;2024-03-08T03:20:53;101624.28;;;5.95;100.00
49813;BME280;35706;52.100;5.056;2024-03-08T03:21:54;101622.47;;;5.80;100.00
49813;BME280;35706;52.100;5.056;2024-03-08T03:22:54;101627.03;;;5.76;100.00
49813;BME280;35706;52.100;5.056;2024-03-08T03:23:56;101624.16;;;5.97;100.00
49813;BME280;35706;52.100;5.056;2024-03-08T03:24:57;101629.97;;;5.86;100.00
49813;BME280;35706;52.100;5.056;2024-03-08T03:25:58;101631.59;;;5.72;100.00
49813;BME280;35706;52.100;5.056;2024-03-08T03:27:00;101622.25;;;5.84;100.00
49813;BME280;35706;52.100;5.056;2024-03-08T03:28:02;101624.00;;;5.52;100.00
49813;BME280;35706;52.100;5.056;2024-03-08T03:29:05;101620.66;;;5.66;100.00
49813;BME280;35706;52.100;5.056;2024-03-08T03:30:06;101621.66;;;5.63;100.00
49813;BME280;35706;52.100;5.056;2024-03-08T03:31:22;101625.63;;;5.70;100.00
49813;BME280;35706;52.100;5.056;2024-03-08T03:32:24;101614.56;;;5.81;100.00
49813;BME280;35706;52.100;5.056;2024-03-08T03:33:25;101612.72;;;5.83;100.00
49813;BME280;35706;52.100;5.056;2024-03-08T03:34:25;101613.41;;;5.87;100.00
49813;BME280;35706;52.100;5.056;2024-03-08T03:35:26;101612.75;;;5.99;100.00
49813;BME280;35706;52.100;5.056;2024-03-08T03:36:27;101613.91;;;5.78;100.00
49813;BME280;35706;52.100;5.056;2024-03-08T03:37:30;101614.19;;;6.19;100.00
49813;BME280;35706;52.100;5.056;2024-03-08T03:38:31;101604.94;;;6.14;100.00
49813;BME280;35706;52.100;5.056;2024-03-08T03:39:31;101612.72;;;5.83;100.00
49813;BME280;35706;52.100;5.056;2024-03-08T03:40:39;101608.09;;;5.88;100.00
49813;BME280;35706;52.100;5.056;2024-03-08T03:41:42;101610.47;;;5.61;100.00
49813;BME280;35706;52.100;5.056;2024-03-08T03:42:45;101608.63;;;5.63;100.00
49813;BME280;35706;52.100;5.056;2024-03-08T03:43:46;101607.47;;;5.53;100.00
49813;BME280;35706;52.100;5.056;2024-03-08T03:44:47;101593.97;;;5.61;100.00
49813;BME280;35706;52.100;5.056;2024-03-08T03:45:48;101604.16;;;5.49;100.00
49813;BME280;35706;52.100;5.056;2024-03-08T03:46:48;101601.91;;;5.43;100.00
49813;BME280;35706;52.100;5.056;2024-03-08T03:47:50;101602.81;;;5.58;100.00
49813;BME280;35706;52.100;5.056;2024-03-08T03:48:51;101600.13;;;5.60;100.00
49813;BME280;35706;52.100;5.056;2024-03-08T03:49:52;101595.88;;;5.89;100.00
49813;BME280;35706;52.100;5.056;2024-03-08T03:50:54;101597.66;;;5.72;100.00
49813;BME280;35706;52.100;5.056;2024-03-08T03:51:54;101599.53;;;5.86;100.00
49813;BME280;35706;52.100;5.056;2024-03-08T03:52:54;101599.28;;;5.59;100.00
49813;BME280;35706;52.100;5.056;2024-03-08T03:53:55;101599.44;;;5.56;100.00
49813;BME280;35706;52.100;5.056;2024-03-08T03:54:57;101594.78;;;5.93;100.00
49813;BME280;35706;52.100;5.056;2024-03-08T03:55:58;101591.78;;;5.69;100.00
49813;BME280;35706;52.100;5.056;2024-03-08T03:56:59;101598.25;;;5.78;100.00
49813;BME280;35706;52.100;5.056;2024-03-08T03:58:00;101597.66;;;6.04;100.00
49813;BME280;35706;52.100;5.056;2024-03-08T03:59:01;101597.19;;;5.66;100.00
49813;BME280;35706;52.100;5.056;2024-03-08T04:00:01;101602.31;;;5.51;100.00
49813;BME280;35706;52.100;5.056;2024-03-08T04:01:04;101590.75;;;5.87;100.00
49813;BME280;35706;52.100;5.056;2024-03-08T04:02:05;101599.09;;;5.78;100.00
49813;BME280;35706;52.100;5.056;2024-03-08T04:03:05;101599.53;;;5.86;100.00
49813;BME280;35706;52.100;5.056;2024-03-08T04:04:05;101602.63;;;5.77;100.00
49813;BME280;35706;52.100;5.056;2024-03-08T04:05:06;101597.50;;;5.76;100.00
49813;BME280;35706;52.100;5.056;2024-03-08T04:06:07;101590.53;;;5.76;100.00
49813;BME280;35706;52.100;5.056;2024-03-08T04:07:08;101595.97;;;5.87;100.00
49813;BME280;35706;52.100;5.056;2024-03-08T04:08:10;101599.03;;;5.64;100.00
49813;BME280;35706;52.100;5.056;2024-03-08T04:09:10;101593.38;;;6.03;100.00
49813;BME280;35706;52.100;5.056;2024-03-08T04:10:11;101596.06;;;6.02;100.00
49813;BME280;35706;52.100;5.056;2024-03-08T04:11:12;101595.22;;;5.85;100.00
49813;BME280;35706;52.100;5.056;2024-03-08T04:12:12;101599.50;;;6.02;100.00
49813;BME280;35706;52.100;5.056;2024-03-08T04:13:12;101594.03;;;5.91;100.00
49813;BME280;35706;52.100;5.056;2024-03-08T04:14:13;101586.09;;;5.92;100.00
49813;BME280;35706;52.100;5.056;2024-03-08T04:15:13;101588.00;;;5.75;100.00
49813;BME280;35706;52.100;5.056;2024-03-08T04:16:14;101587.47;;;5.84;100.00
49813;BME280;35706;52.100;5.056;2024-03-08T04:17:14;101589.47;;;6.10;100.00
49813;BME280;35706;52.100;5.056;2024-03-08T04:18:14;101591.16;;;5.80;100.00
49813;BME280;35706;52.100;5.056;2024-03-08T04:19:15;101576.53;;;5.93;100.00
49813;BME280;35706;52.100;5.056;2024-03-08T04:20:15;101582.91;;;5.87;100.00
49813;BME280;35706;52.100;5.056;2024-03-08T04:21:17;101581.25;;;5.86;100.00
49813;BME280;35706;52.100;5.056;2024-03-08T04:22:19;101585.00;;;5.50;100.00
49813;BME280;35706;52.100;5.056;2024-03-08T04:23:20;101583.47;;;5.62;100.00
49813;BME280;35706;52.100;5.056;2024-03-08T04:24:20;101591.00;;;5.99;100.00
49813;BME280;35706;52.100;5.056;2024-03-08T04:25:21;101584.63;;;5.72;100.00
49813;BME280;35706;52.100;5.056;2024-03-08T04:26:21;101587.13;;;5.90;100.00
49813;BME280;35706;52.100;5.056;2024-03-08T04:27:22;101581.69;;;5.63;100.00
49813;BME280;35706;52.100;5.056;2024-03-08T04:28:22;101581.84;;;5.76;100.00
49813;BME280;35706;52.100;5.056;2024-03-08T04:29:22;101577.34;;;5.63;100.00
49813;BME280;35706;52.100;5.056;2024-03-08T04:30:23;101580.59;;;5.83;100.00
49813;BME280;35706;52.100;5.056;2024-03-08T04:31:24;101579.06;;;5.79;100.00
49813;BME280;35706;52.100;5.056;2024-03-08T04:32:26;101577.06;;;5.52;100.00
49813;BME280;35706;52.100;5.056;2024-03-08T04:33:28;101577.56;;;5.75;100.00
49813;BME280;35706;52.100;5.056;2024-03-08T04:34:28;101570.53;;;5.45;100.00
49813;BME280;35706;52.100;5.056;2024-03-08T04:35:29;101572.81;;;5.51;100.00
49813;BME280;35706;52.100;5.056;2024-03-08T04:36:30;101580.13;;;5.44;100.00
49813;BME280;35706;52.100;5.056;2024-03-08T04:37:30;101574.88;;;5.60;100.00
49813;BME280;35706;52.100;5.056;2024-03-08T04:38:31;101578.66;;;5.70;100.00
49813;BME280;35706;52.100;5.056;2024-03-08T04:39:31;101579.56;;;5.85;100.00
49813;BME280;35706;52.100;5.056;2024-03-08T04:40:32;101573.03;;;5.78;100.00
49813;BME280;35706;52.100;5.056;2024-03-08T04:41:32;101576.56;;;5.45;100.00
49813;BME280;35706;52.100;5.056;2024-03-08T04:42:35;101577.34;;;5.32;100.00
49813;BME280;35706;52.100;5.056;2024-03-08T04:43:37;101575.91;;;5.74;100.00
49813;BME280;35706;52.100;5.056;2024-03-08T04:44:37;101568.16;;;5.72;100.00
49813;BME280;35706;52.100;5.056;2024-03-08T04:45:38;101563.75;;;5.88;100.00
49813;BME280;35706;52.100;5.056;2024-03-08T04:46:39;101569.31;;;5.66;100.00
49813;BME280;35706;52.100;5.056;2024-03-08T04:47:39;101569.34;;;5.35;100.00
49813;BME280;35706;52.100;5.056;2024-03-08T04:48:40;101569.78;;;5.43;100.00
49813;BME280;35706;52.100;5.056;2024-03-08T04:49:42;101566.41;;;5.41;100.00
49813;BME280;35706;52.100;5.056;2024-03-08T04:50:43;101569.09;;;5.55;100.00
49813;BME280;35706;52.100;5.056;2024-03-08T04:51:44;101562.53;;;5.48;100.00
49813;BME280;35706;52.100;5.056;2024-03-08T04:52:45;101568.66;;;5.31;100.00
49813;BME280;35706;52.100;5.056;2024-03-08T04:53:46;101566.56;;;5.22;100.00
49813;BME280;35706;52.100;5.056;2024-03-08T04:54:46;101570.53;;;5.13;100.00
49813;BME280;35706;52.100;5.056;2024-03-08T04:55:47;101560.28;;;5.26;100.00
49813;BME280;35706;52.100;5.056;2024-03-08T04:56:47;101553.59;;;5.52;100.00
49813;BME280;35706;52.100;5.056;2024-03-08T04:57:48;101554.78;;;5.62;100.00
49813;BME280;35706;52.100;5.056;2024-03-08T04:58:48;101564.94;;;5.83;100.00
49813;BME280;35706;52.100;5.056;2024-03-08T04:59:49;101556.72;;;5.27;100.00
49813;BME280;35706;52.100;5.056;2024-03-08T05:00:49;101556.97;;;5.22;100.00
49813;BME280;35706;52.100;5.056;2024-03-08T05:01:50;101554.81;;;5.15;100.00
49813;BME280;35706;52.100;5.056;2024-03-08T05:02:51;101560.09;;;5.45;100.00
49813;BME280;35706;52.100;5.056;2024-03-08T05:03:53;101554.88;;;5.45;100.00
49813;BME280;35706;52.100;5.056;2024-03-08T05:04:56;101556.31;;;5.35;100.00
49813;BME280;35706;52.100;5.056;2024-03-08T05:05:56;101544.97;;;5.20;100.00
49813;BME280;35706;52.100;5.056;2024-03-08T05:06:57;101557.84;;;5.23;100.00
49813;BME280;35706;52.100;5.056;2024-03-08T05:07:57;101557.16;;;5.35;100.00
49813;BME280;35706;52.100;5.056;2024-03-08T05:08:57;101553.25;;;5.58;100.00
49813;BME280;35706;52.100;5.056;2024-03-08T05:09:58;101554.31;;;5.40;100.00
49813;BME280;35706;52.100;5.056;2024-03-08T05:10:59;101543.81;;;5.25;100.00
49813;BME280;35706;52.100;5.056;2024-03-08T05:12:02;101561.94;;;5.11;100.00
49813;BME280;35706;52.100;5.056;2024-03-08T05:13:03;101549.00;;;5.09;100.00
49813;BME280;35706;52.100;5.056;2024-03-08T05:14:03;101550.44;;;5.15;100.00
49813;BME280;35706;52.100;5.056;2024-03-08T05:15:05;101550.75;;;5.41;100.00
49813;BME280;35706;52.100;5.056;2024-03-08T05:16:05;101552.28;;;5.13;100.00
49813;BME280;35706;52.100;5.056;2024-03-08T05:17:07;101549.41;;;5.49;100.00
49813;BME280;35706;52.100;5.056;2024-03-08T05:18:07;101554.53;;;5.35;100.00
49813;BME280;35706;52.100;5.056;2024-03-08T05:19:11;101546.72;;;5.35;100.00